createdAt,value
2019-05-15T00:00:38.666Z,100368.72
2019-05-15T00:03:10.992Z,100369.40
2019-05-15T00:05:43.419Z,100369.02
2019-05-15T00:08:18.222Z,100372.03
2019-05-15T00:10:50.021Z,100369.19
2019-05-15T00:13:22.454Z,100365.82
2019-05-15T00:15:55.040Z,100359.72
2019-05-15T00:18:28.119Z,100357.06
2019-05-15T00:21:00.758Z,100360.02
2019-05-15T00:23:33.171Z,100359.37
2019-05-15T00:26:05.681Z,100359.30
2019-05-15T00:28:39.380Z,100357.84
2019-05-15T00:31:11.918Z,100354.73
2019-05-15T00:33:44.404Z,100351.39
2019-05-15T00:36:19.038Z,100350.70
2019-05-15T00:38:51.009Z,100345.63
2019-05-15T00:41:23.458Z,100345.63
2019-05-15T00:43:58.326Z,100344.34
2019-05-15T00:46:29.999Z,100343.95
2019-05-15T00:49:02.410Z,100338.31
2019-05-15T00:51:34.934Z,100338.43
2019-05-15T00:54:08.426Z,100336.92
2019-05-15T00:56:41.069Z,100329.55
2019-05-15T00:59:24.113Z,100321.58
2019-05-15T01:01:48.779Z,100322.13
2019-05-15T01:04:21.397Z,100318.30
2019-05-15T01:06:53.826Z,100315.88
2019-05-15T01:09:26.333Z,100317.41
2019-05-15T01:11:58.810Z,100310.41
2019-05-15T01:14:31.294Z,100309.67
2019-05-15T01:17:03.727Z,100301.17
2019-05-15T01:19:37.920Z,100297.56
2019-05-15T01:22:10.207Z,100293.90
2019-05-15T01:24:42.627Z,100292.08
2019-05-15T01:27:15.064Z,100293.97
2019-05-15T01:29:49.309Z,100291.42
2019-05-15T01:32:21.609Z,100295.95
2019-05-15T01:34:53.947Z,100288.17
2019-05-15T01:37:28.179Z,100286.31
2019-05-15T01:40:00.677Z,100286.25
2019-05-15T01:42:33.114Z,100280.28
2019-05-15T01:45:05.550Z,100280.98
2019-05-15T01:47:38.935Z,100283.19
2019-05-15T01:50:11.663Z,100283.87
2019-05-15T01:52:44.030Z,100276.62
2019-05-15T01:55:18.169Z,100279.71
2019-05-15T01:57:50.754Z,100278.98
2019-05-15T02:00:23.168Z,100281.92
2019-05-15T02:02:55.596Z,100276.90
2019-05-15T02:05:28.348Z,100277.87
2019-05-15T02:08:00.933Z,100274.67
2019-05-15T02:10:33.363Z,100275.78
2019-05-15T02:13:08.318Z,100275.63
2019-05-15T02:15:39.934Z,100274.42
2019-05-15T02:18:12.363Z,100272.59
2019-05-15T02:20:44.801Z,100272.02
2019-05-15T02:23:18.900Z,100279.41
2019-05-15T02:25:51.281Z,100279.64
2019-05-15T02:28:23.720Z,100276.09
2019-05-15T02:30:58.691Z,100271.31
2019-05-15T02:33:31.323Z,100270.02
2019-05-15T02:36:03.741Z,100270.02
2019-05-15T02:38:40.436Z,100271.75
2019-05-15T02:41:10.454Z,100265.48
2019-05-15T02:43:42.871Z,100265.58
2019-05-15T02:46:15.288Z,100262.88
2019-05-15T02:48:48.964Z,100263.34
2019-05-15T02:51:21.621Z,100259.11
2019-05-15T02:53:54.084Z,100265.58
2019-05-15T02:56:29.102Z,100262.83
2019-05-15T02:59:00.559Z,100258.44
2019-05-15T03:01:32.992Z,100264.28
2019-05-15T03:04:09.038Z,100259.09
2019-05-15T03:06:39.736Z,100262.17
2019-05-15T03:09:12.188Z,100262.05
2019-05-15T03:11:44.621Z,100259.05
2019-05-15T03:14:17.092Z,100257.07
2019-05-15T03:16:49.912Z,100258.08
2019-05-15T03:19:22.433Z,100258.84
2019-05-15T03:21:54.836Z,100259.88
2019-05-15T03:24:28.879Z,100257.70
2019-05-15T03:27:01.626Z,100268.14
2019-05-15T03:29:34.064Z,100269.80
2019-05-15T03:32:23.842Z,100261.69
2019-05-15T03:34:46.913Z,100264.30
2019-05-15T03:37:15.010Z,100267.14
2019-05-15T03:39:51.594Z,100260.72
2019-05-15T03:42:21.633Z,100260.52
2019-05-15T03:44:54.058Z,100257.33
2019-05-15T03:47:29.945Z,100262.15
2019-05-15T03:50:00.510Z,100259.85
2019-05-15T03:52:32.910Z,100259.53
2019-05-15T03:55:05.683Z,100261.55
2019-05-15T03:57:40.115Z,100261.80
2019-05-15T04:00:12.240Z,100261.05
2019-05-15T04:02:44.658Z,100257.12
2019-05-15T04:05:19.685Z,100260.65
2019-05-15T04:07:52.172Z,100261.19
2019-05-15T04:10:24.606Z,100259.10
2019-05-15T04:12:59.930Z,100264.48
2019-05-15T04:15:31.159Z,100262.46
2019-05-15T04:18:03.558Z,100258.11
2019-05-15T04:20:36.000Z,100260.02
2019-05-15T04:23:10.258Z,100261.64
2019-05-15T04:25:42.605Z,100263.98
2019-05-15T04:28:15.008Z,100256.52
2019-05-15T04:30:49.455Z,100262.17
2019-05-15T04:33:21.552Z,100263.06
2019-05-15T04:35:53.991Z,100265.23
2019-05-15T04:38:28.944Z,100258.80
2019-05-15T04:41:01.193Z,100255.78
2019-05-15T04:43:41.459Z,100256.30
2019-05-15T04:46:09.853Z,100262.50
2019-05-15T04:48:41.862Z,100265.86
2019-05-15T04:51:14.295Z,100263.75
2019-05-15T04:53:49.935Z,100265.02
2019-05-15T04:56:20.840Z,100264.17
2019-05-15T04:58:53.660Z,100264.10
2019-05-15T05:01:28.903Z,100268.42
2019-05-15T05:04:00.383Z,100265.16
2019-05-15T05:06:32.822Z,100270.81
2019-05-15T05:09:09.084Z,100271.11
2019-05-15T05:11:40.470Z,100269.41
2019-05-15T05:14:12.904Z,100270.02
2019-05-15T05:16:45.327Z,100264.78
2019-05-15T05:19:19.583Z,100260.66
2019-05-15T05:21:51.841Z,100262.02
2019-05-15T05:24:24.611Z,100266.16
2019-05-15T05:26:58.104Z,100265.86
2019-05-15T05:29:30.665Z,100267.84
2019-05-15T05:32:04.957Z,100264.02
2019-05-15T05:34:39.196Z,100268.55
2019-05-15T05:37:11.847Z,100263.30
2019-05-15T05:39:45.160Z,100265.95
2019-05-15T05:42:18.483Z,100258.36
2019-05-15T05:44:51.062Z,100255.89
2019-05-15T05:47:23.497Z,100258.22
2019-05-15T05:49:58.099Z,100256.72
2019-05-15T05:52:30.042Z,100253.31
2019-05-15T05:55:02.452Z,100250.80
2019-05-15T05:57:34.947Z,100244.29
2019-05-15T06:00:09.316Z,100249.66
2019-05-15T06:02:47.799Z,100245.83
2019-05-15T06:05:18.832Z,100244.55
2019-05-15T06:07:50.020Z,100251.45
2019-05-15T06:10:22.462Z,100250.04
2019-05-15T06:12:54.922Z,100248.42
2019-05-15T06:15:28.565Z,100254.13
2019-05-15T06:18:01.445Z,100253.16
2019-05-15T06:20:33.865Z,100253.30
2019-05-15T06:23:08.366Z,100245.68
2019-05-15T06:25:40.408Z,100245.92
2019-05-15T06:28:12.890Z,100244.61
2019-05-15T06:30:45.296Z,100242.95
2019-05-15T06:33:18.733Z,100241.89
2019-05-15T06:35:52.494Z,100238.72
2019-05-15T06:38:25.049Z,100238.44
2019-05-15T06:40:58.271Z,100233.80
2019-05-15T06:43:30.913Z,100235.48
2019-05-15T06:46:03.330Z,100231.27
2019-05-15T06:48:37.831Z,100225.60
2019-05-15T06:51:09.967Z,100229.33
2019-05-15T06:53:42.660Z,100226.09
2019-05-15T06:56:15.074Z,100226.92
2019-05-15T06:58:48.733Z,100230.84
2019-05-15T07:01:21.372Z,100228.31
2019-05-15T07:03:53.808Z,100228.09
2019-05-15T07:06:28.571Z,100225.27
2019-05-15T07:09:00.592Z,100220.99
2019-05-15T07:11:34.598Z,100225.60
2019-05-15T07:14:08.920Z,100225.23
2019-05-15T07:16:41.453Z,100217.58
2019-05-15T07:19:13.990Z,100213.50
2019-05-15T07:21:48.523Z,100211.50
2019-05-15T07:24:20.480Z,100211.52
2019-05-15T07:26:52.895Z,100212.46
2019-05-15T07:29:25.754Z,100212.43
2019-05-15T07:31:58.576Z,100212.70
2019-05-15T07:34:31.377Z,100210.12
2019-05-15T07:37:03.785Z,100205.36
2019-05-15T07:39:38.202Z,100202.11
2019-05-15T07:42:10.358Z,100203.27
2019-05-15T07:44:48.190Z,100206.72
2019-05-15T07:47:20.375Z,100206.17
2019-05-15T07:49:52.804Z,100205.60
2019-05-15T07:52:25.255Z,100204.02
2019-05-15T07:54:58.287Z,100204.40
2019-05-15T07:57:30.900Z,100201.20
2019-05-15T08:00:03.339Z,100201.36
2019-05-15T08:02:37.891Z,100196.14
2019-05-15T08:05:09.982Z,100200.55
2019-05-15T08:07:42.539Z,100199.96
2019-05-15T08:10:18.150Z,100197.44
2019-05-15T08:12:49.967Z,100193.11
2019-05-15T08:15:22.492Z,100194.70
2019-05-15T08:18:05.511Z,100196.39
2019-05-15T08:20:30.656Z,100195.72
2019-05-15T08:23:03.055Z,100187.29
2019-05-15T08:25:35.621Z,100188.47
2019-05-15T08:28:08.732Z,100179.45
2019-05-15T08:30:41.826Z,100176.88
2019-05-15T08:33:14.298Z,100172.57
2019-05-15T08:35:51.148Z,100166.44
2019-05-15T08:38:20.857Z,100162.92
2019-05-15T08:40:53.284Z,100163.20
2019-05-15T08:43:28.422Z,100162.24
2019-05-15T08:45:59.747Z,100161.98
2019-05-15T08:48:32.903Z,100158.47
2019-05-15T08:51:05.759Z,100152.17
2019-05-15T08:53:38.248Z,100148.39
2019-05-15T08:56:10.612Z,100146.70
2019-05-15T08:58:43.035Z,100148.41
2019-05-15T09:01:15.490Z,100141.68
2019-05-15T09:03:49.165Z,100144.45
2019-05-15T09:06:23.181Z,100133.45
2019-05-15T09:08:58.330Z,100132.77
2019-05-15T09:11:30.013Z,100128.36
2019-05-15T09:14:02.494Z,100128.42
2019-05-15T09:16:34.938Z,100130.00
2019-05-15T09:19:08.363Z,100123.41
2019-05-15T09:21:40.971Z,100126.72
2019-05-15T09:24:13.378Z,100124.45
2019-05-15T09:26:48.509Z,100114.19
2019-05-15T09:29:20.098Z,100108.64
2019-05-15T09:31:52.519Z,100097.75
2019-05-15T09:34:25.022Z,100092.77
2019-05-15T09:37:00.011Z,100089.76
2019-05-15T09:39:31.634Z,100084.07
2019-05-15T09:42:04.070Z,100080.89
2019-05-15T09:44:36.473Z,100073.83
2019-05-15T09:47:09.254Z,100077.99
2019-05-15T09:49:41.799Z,100078.47
2019-05-15T09:52:17.277Z,100077.29
2019-05-15T09:54:49.483Z,100068.43
2019-05-15T09:57:21.954Z,100062.95
2019-05-15T09:59:54.366Z,100064.94
2019-05-15T10:02:28.456Z,100065.30
2019-05-15T10:05:06.397Z,100063.48
2019-05-15T10:07:35.296Z,100064.95
2019-05-15T10:10:08.735Z,100061.53
2019-05-15T10:12:41.509Z,100058.94
2019-05-15T10:15:14.099Z,100057.70
2019-05-15T10:17:50.297Z,100051.47
2019-05-15T10:20:21.366Z,100047.44
2019-05-15T10:22:54.896Z,100045.58
2019-05-15T10:25:28.123Z,100037.77
2019-05-15T10:28:00.611Z,100040.70
2019-05-15T10:30:33.013Z,100033.48
2019-05-15T10:33:05.505Z,100036.31
2019-05-15T10:35:39.330Z,100041.58
2019-05-15T10:38:11.949Z,100042.18
2019-05-15T10:40:58.555Z,100039.05
2019-05-15T10:43:20.512Z,100030.27
2019-05-15T10:45:54.651Z,100028.40
2019-05-15T10:48:29.236Z,100024.42
2019-05-15T10:51:06.192Z,100033.95
2019-05-15T10:53:34.939Z,100021.80
2019-05-15T10:56:08.929Z,100015.59
2019-05-15T10:58:41.562Z,100010.04
2019-05-15T11:01:14.047Z,100009.38
2019-05-15T11:03:49.474Z,100018.70
2019-05-15T11:06:21.142Z,100015.60
2019-05-15T11:08:53.586Z,100011.14
2019-05-15T11:11:25.986Z,100009.21
2019-05-15T11:14:00.536Z,100008.19
2019-05-15T11:16:32.544Z,100013.16
2019-05-15T11:19:08.036Z,100007.28
2019-05-15T11:21:43.391Z,100007.54
2019-05-15T11:24:14.402Z,100001.84
2019-05-15T11:26:49.901Z,99996.16
2019-05-15T11:29:20.940Z,100002.47
2019-05-15T11:31:53.343Z,99995.45
2019-05-15T11:34:25.747Z,99997.26
2019-05-15T11:36:59.344Z,99997.25
2019-05-15T11:39:32.027Z,99989.95
2019-05-15T11:42:04.426Z,99990.19
2019-05-15T11:44:38.881Z,99984.78
2019-05-15T11:47:10.972Z,99979.51
2019-05-15T11:49:43.402Z,99982.52
2019-05-15T11:52:18.606Z,99974.50
2019-05-15T11:54:49.936Z,99974.86
2019-05-15T11:57:37.287Z,99976.53
2019-05-15T11:59:59.602Z,99970.86
2019-05-15T12:02:30.504Z,99965.10
2019-05-15T12:05:02.929Z,99959.36
2019-05-15T12:07:35.337Z,99964.41
2019-05-15T12:10:10.584Z,99960.36
2019-05-15T12:12:41.880Z,99947.68
2019-05-15T12:15:14.436Z,99946.63
2019-05-15T12:17:48.464Z,99939.80
2019-05-15T12:20:21.207Z,99936.94
2019-05-15T12:22:53.604Z,99939.48
2019-05-15T12:25:31.457Z,99947.27
2019-05-15T12:28:00.135Z,99941.55
2019-05-15T12:30:32.577Z,99948.05
2019-05-15T12:33:04.978Z,99938.73
2019-05-15T12:35:39.601Z,99940.38
2019-05-15T12:38:11.585Z,99933.59
2019-05-15T13:01:18.422Z,99919.59
2019-05-15T13:03:51.361Z,99919.20
2019-05-15T13:06:23.782Z,99913.23
2019-05-15T13:08:56.261Z,99906.41
2019-05-15T13:11:28.751Z,99903.52
2019-05-15T13:14:01.172Z,99910.58
2019-05-15T13:16:33.677Z,99903.59
2019-05-15T13:19:06.080Z,99907.77
2019-05-15T13:21:38.502Z,99901.02
2019-05-15T13:24:10.928Z,99899.25
2019-05-15T13:26:43.330Z,99894.70
2019-05-15T13:29:18.022Z,99894.83
2019-05-15T13:31:49.843Z,99894.73
2019-05-15T13:34:22.245Z,99895.70
2019-05-15T13:36:54.667Z,99891.84
2019-05-15T13:39:28.402Z,99887.52
2019-05-15T13:42:01.077Z,99881.00
2019-05-15T13:44:33.490Z,99880.69
2019-05-15T13:47:08.469Z,99875.44
2019-05-15T13:49:40.011Z,99875.39
2019-05-15T13:52:12.447Z,99882.30
2019-05-15T13:54:44.838Z,99886.23
2019-05-15T13:57:18.039Z,99878.32
2019-05-15T13:59:50.668Z,99873.83
2019-05-15T14:02:23.097Z,99868.44
2019-05-15T14:04:58.133Z,99870.13
2019-05-15T14:07:44.709Z,99861.77
2019-05-15T14:10:03.812Z,99860.97
2019-05-15T14:12:38.235Z,99862.19
2019-05-15T14:15:10.478Z,99865.28
2019-05-15T14:17:42.904Z,99865.48
2019-05-15T14:20:16.407Z,99864.77
2019-05-15T14:22:48.899Z,99861.67
2019-05-15T14:25:21.308Z,99855.04
2019-05-15T14:27:53.797Z,99860.87
2019-05-15T14:30:29.008Z,99858.42
2019-05-15T14:33:00.681Z,99857.30
2019-05-15T14:35:33.277Z,99853.06
2019-05-15T14:38:06.886Z,99851.63
2019-05-15T14:40:39.930Z,99840.66
2019-05-15T14:43:12.351Z,99846.32
2019-05-15T14:45:45.055Z,99839.45
2019-05-15T14:48:18.997Z,99835.76
2019-05-15T14:50:51.578Z,99836.44
2019-05-15T14:53:24.010Z,99837.50
2019-05-15T14:56:00.016Z,99849.16
2019-05-15T14:58:31.244Z,99842.93
2019-05-15T15:01:04.458Z,99837.58
2019-05-15T15:03:38.099Z,99832.33
2019-05-15T15:06:10.563Z,99834.62
2019-05-15T15:08:42.983Z,99830.63
2019-05-15T15:11:17.790Z,99825.78
2019-05-15T15:13:50.757Z,99829.83
2019-05-15T15:16:23.158Z,99827.06
2019-05-15T15:18:55.499Z,99830.52
2019-05-15T15:21:29.262Z,99828.62
2019-05-15T15:24:01.911Z,99832.43
2019-05-15T15:26:34.311Z,99831.91
2019-05-15T15:29:08.488Z,99828.33
2019-05-15T15:31:41.241Z,99827.84
2019-05-15T15:34:13.929Z,99821.95
2019-05-15T15:36:48.332Z,99823.99
2019-05-15T15:39:20.379Z,99826.24
2019-05-15T15:41:52.914Z,99825.51
2019-05-15T15:44:25.336Z,99826.16
2019-05-15T15:46:59.239Z,99818.12
2019-05-15T15:49:32.099Z,99822.30
2019-05-15T15:52:04.570Z,99824.23
2019-05-15T15:54:39.546Z,99820.25
2019-05-15T15:57:11.399Z,99819.81
2019-05-15T15:59:43.827Z,99823.39
2019-05-15T16:02:18.570Z,99816.77
2019-05-15T16:04:52.020Z,99821.09
2019-05-15T16:07:24.411Z,99817.91
2019-05-15T16:09:58.894Z,99818.16
2019-05-15T16:12:31.388Z,99821.45
2019-05-15T16:15:03.890Z,99821.31
2019-05-15T16:17:38.541Z,99822.00
2019-05-15T16:20:10.377Z,99817.56
2019-05-15T16:22:43.230Z,99816.04
2019-05-15T16:25:17.916Z,99821.58
2019-05-15T16:27:49.954Z,99815.35
2019-05-15T16:30:22.477Z,99809.80
2019-05-15T16:32:55.149Z,99807.98
2019-05-15T16:35:28.989Z,99805.09
2019-05-15T16:38:02.609Z,99807.86
2019-05-15T16:40:35.028Z,99815.05
2019-05-15T16:43:07.429Z,99815.80
2019-05-15T16:45:39.853Z,99811.37
2019-05-15T16:48:12.260Z,99812.27
2019-05-15T16:50:44.695Z,99813.50
2019-05-15T16:53:18.276Z,99817.39
2019-05-15T16:55:50.896Z,99824.84
2019-05-15T16:58:23.304Z,99827.69
2019-05-15T17:00:58.564Z,99827.16
2019-05-15T17:03:31.053Z,99827.23
2019-05-15T17:06:03.478Z,99828.11
2019-05-15T17:08:37.887Z,99833.85
2019-05-15T17:11:10.175Z,99835.63
2019-05-15T17:13:42.580Z,99834.49
2019-05-15T17:16:15.115Z,99835.80
2019-05-15T17:18:48.633Z,99839.05
2019-05-15T17:21:21.427Z,99836.22
2019-05-15T17:23:53.893Z,99841.90
2019-05-15T17:26:28.729Z,99839.03
2019-05-15T17:29:00.474Z,99841.24
2019-05-15T17:31:33.065Z,99842.16
2019-05-15T17:34:05.640Z,99837.54
2019-05-15T17:36:38.384Z,99838.28
2019-05-15T17:39:10.857Z,99835.11
2019-05-15T17:41:43.730Z,99839.81
2019-05-15T17:44:16.251Z,99833.78
2019-05-15T17:46:49.082Z,99836.53
2019-05-15T17:49:21.560Z,99838.48
2019-05-15T17:51:53.964Z,99838.59
2019-05-15T17:54:28.617Z,99842.02
2019-05-15T17:57:00.752Z,99851.52
2019-05-15T17:59:33.210Z,99850.92
2019-05-15T18:02:08.381Z,99854.75
2019-05-15T18:04:40.154Z,99854.65
2019-05-15T18:07:12.618Z,99850.74
2019-05-15T18:09:51.540Z,99860.32
2019-05-15T18:12:19.699Z,99855.84
2019-05-15T18:14:52.264Z,99863.45
2019-05-15T18:17:24.856Z,99861.80
2019-05-15T18:19:58.087Z,99870.88
2019-05-15T18:22:30.990Z,99866.08
2019-05-15T18:25:04.907Z,99867.74
2019-05-15T18:27:39.156Z,99865.56
2019-05-15T18:30:11.991Z,99874.77
2019-05-15T18:32:44.612Z,99874.51
2019-05-15T18:35:18.761Z,99875.67
2019-05-15T18:37:51.501Z,99880.54
2019-05-15T18:40:23.976Z,99888.67
2019-05-15T18:42:58.963Z,99881.78
2019-05-15T18:45:30.481Z,99881.08
2019-05-15T18:48:03.001Z,99887.23
2019-05-15T18:50:37.658Z,99888.63
2019-05-15T18:53:09.662Z,99885.86
2019-05-15T18:55:42.060Z,99884.88
2019-05-15T18:58:14.543Z,99886.48
2019-05-15T19:00:48.892Z,99876.14
2019-05-15T19:03:22.865Z,99883.30
2019-05-15T19:05:55.520Z,99887.20
2019-05-15T19:08:28.374Z,99884.80
2019-05-15T19:11:01.093Z,99888.16
2019-05-15T19:13:33.514Z,99891.79
2019-05-15T19:16:06.051Z,99891.95
2019-05-15T19:18:39.546Z,99893.41
2019-05-15T19:21:12.018Z,99892.75
2019-05-15T19:23:44.525Z,99906.80
2019-05-15T19:26:18.206Z,99901.98
2019-05-15T19:28:50.908Z,99900.27
2019-05-15T19:31:27.270Z,99904.64
2019-05-15T19:33:57.515Z,99902.67
2019-05-15T19:36:31.467Z,99906.09
2019-05-15T19:39:04.693Z,99912.38
2019-05-15T19:41:38.263Z,99912.65
2019-05-15T19:44:11.931Z,99910.30
2019-05-15T19:46:44.396Z,99913.99
2019-05-15T19:49:17.940Z,99916.70
2019-05-15T19:51:50.384Z,99909.70
2019-05-15T19:54:22.823Z,99911.00
2019-05-15T19:56:55.140Z,99911.63
2019-05-15T19:59:29.469Z,99911.11
2019-05-15T20:02:01.743Z,99902.39
2019-05-15T20:04:34.224Z,99906.66
2019-05-15T20:07:08.042Z,99904.53
2019-05-15T20:09:40.704Z,99901.44
2019-05-15T20:12:13.099Z,99901.55
2019-05-15T20:14:45.897Z,99900.84
2019-05-15T20:17:18.431Z,99902.71
2019-05-15T20:19:51.131Z,99898.44
2019-05-15T20:22:23.532Z,99900.63
2019-05-15T20:24:58.342Z,99893.83
2019-05-15T20:27:30.138Z,99897.47
2019-05-15T20:30:02.557Z,99894.95
2019-05-15T20:32:35.151Z,99894.20
2019-05-15T20:35:08.657Z,99898.58
2019-05-15T20:37:42.038Z,99897.34
2019-05-15T20:40:17.944Z,99896.49
2019-05-15T20:42:49.793Z,99895.64
2019-05-15T20:45:22.262Z,99893.55
2019-05-15T20:47:54.666Z,99889.23
2019-05-15T20:50:28.216Z,99890.12
2019-05-15T20:53:00.952Z,99889.92
2019-05-15T20:55:33.375Z,99887.56
2019-05-15T20:58:07.897Z,99887.72
2019-05-15T21:00:41.210Z,99883.08
2019-05-15T21:03:13.677Z,99878.50
2019-05-15T21:05:46.267Z,99881.75
2019-05-15T21:08:18.731Z,99880.89
2019-05-15T21:10:52.232Z,99880.41
2019-05-15T21:13:24.695Z,99876.98
2019-05-15T21:15:58.934Z,99872.77
2019-05-15T21:18:31.234Z,99869.14
2019-05-15T21:21:03.732Z,99861.45
2019-05-15T21:23:38.503Z,99862.95
2019-05-15T21:26:11.075Z,99854.85
2019-05-15T21:28:44.110Z,99853.99
2019-05-15T21:31:21.299Z,99854.61
2019-05-15T21:33:50.928Z,99854.99
2019-05-15T21:36:23.379Z,99848.70
2019-05-15T21:38:55.776Z,99852.28
2019-05-15T21:41:28.198Z,99843.84
2019-05-15T21:44:00.873Z,99844.65
2019-05-15T21:46:33.291Z,99839.04
2019-05-15T21:49:05.699Z,99838.88
2019-05-15T21:51:38.698Z,99841.44
2019-05-15T21:54:11.091Z,99839.04
2019-05-15T21:56:43.687Z,99837.17
2019-05-15T21:59:18.659Z,99830.61
2019-05-15T22:01:50.198Z,99821.60
2019-05-15T22:04:22.674Z,99820.84
2019-05-15T22:06:55.132Z,99810.39
2019-05-15T22:09:29.075Z,99809.26
2019-05-15T22:12:01.911Z,99809.52
2019-05-15T22:14:34.409Z,99805.16
2019-05-15T22:17:09.233Z,99800.79
2019-05-15T22:19:41.048Z,99795.19
2019-05-15T22:22:13.644Z,99793.41
2019-05-15T22:24:48.231Z,99788.29
2019-05-15T22:27:21.038Z,99784.89
2019-05-15T22:29:53.638Z,99781.09
2019-05-15T22:32:26.073Z,99782.05
2019-05-15T22:35:06.983Z,99778.32
2019-05-15T22:37:32.593Z,99777.41
2019-05-15T22:40:05.068Z,99771.91
2019-05-15T22:42:39.084Z,99768.50
2019-05-15T22:45:11.969Z,99763.70
2019-05-15T22:47:44.696Z,99758.78
2019-05-15T22:50:18.919Z,99756.39
2019-05-15T22:52:51.206Z,99755.17
2019-05-15T22:55:23.598Z,99751.27
2019-05-15T22:57:58.396Z,99754.78
2019-05-15T23:00:30.135Z,99750.95
2019-05-15T23:03:02.545Z,99746.50
2019-05-15T23:05:34.939Z,99745.49
2019-05-15T23:08:07.358Z,99744.41
2019-05-15T23:10:39.756Z,99744.69
2019-05-15T23:13:12.175Z,99740.61
2019-05-15T23:15:44.614Z,99738.09
2019-05-15T23:18:17.897Z,99738.67
2019-05-15T23:20:50.411Z,99739.85
2019-05-15T23:23:22.832Z,99735.95
2019-05-15T23:25:55.221Z,99730.56
2019-05-15T23:28:28.107Z,99727.47
2019-05-15T23:31:00.745Z,99718.66
2019-05-15T23:33:33.167Z,99719.67
2019-05-15T23:36:05.500Z,99720.09
2019-05-15T23:38:38.487Z,99715.49
2019-05-15T23:41:10.983Z,99711.50
2019-05-15T23:43:43.400Z,99704.47
2019-05-15T23:46:18.209Z,99699.94
2019-05-15T23:48:49.912Z,99703.40
2019-05-15T23:51:22.294Z,99700.70
2019-05-15T23:53:54.741Z,99695.58
2019-05-15T23:56:29.026Z,99698.73
2019-05-15T23:59:01.243Z,99692.16
